Crescent Valley, Nevada
Current Conditions -  °F | °C
As of 12:56 AM on Friday 19 Dec 2014 (Local Time) from KEKO Reporting Station
Clear Clear  
Wind Chill: -4°   Ceiling: Unl
Heat Index: -4°   Visibility: 10mi
Dew Point: -6°   Wind: 0mph
Humidity: 91%   Direction: NA
Pressure: 30.13"   Gusts: NA
Location:  40.42°N, 116.58°W
Report Text: KEKO 190856Z AUTO 00000KT 10SM CLR M04/M06 A3013 RMK AO2 SLP225 I1000 I3001 T10441056 58004
Loading
Personal Weather Stations






























Interactive Weather Map New forecast layout! Learn more

10-Day Weather Forecast

Advertisements
Track Severe Weather on mobile